sensor_id;sensor_type;location;lat;lon;timestamp;P1;durP1;ratioP1;P2;durP2;ratioP2
20541;SDS011;10429;50.956;9.786;2022-10-16T00:00:41;3.83;;;3.53;;
20541;SDS011;10429;50.956;9.786;2022-10-16T00:03:08;4.17;;;3.27;;
20541;SDS011;10429;50.956;9.786;2022-10-16T00:05:38;5.77;;;3.97;;
20541;SDS011;10429;50.956;9.786;2022-10-16T00:08:04;5.90;;;3.53;;
20541;SDS011;10429;50.956;9.786;2022-10-16T00:10:30;3.67;;;3.30;;
20541;SDS011;10429;50.956;9.786;2022-10-16T00:12:56;4.30;;;3.00;;
20541;SDS011;10429;50.956;9.786;2022-10-16T00:15:22;4.77;;;2.90;;
20541;SDS011;10429;50.956;9.786;2022-10-16T00:17:48;3.40;;;3.10;;
20541;SDS011;10429;50.956;9.786;2022-10-16T00:20:14;3.33;;;2.90;;
20541;SDS011;10429;50.956;9.786;2022-10-16T00:22:40;3.43;;;3.20;;
20541;SDS011;10429;50.956;9.786;2022-10-16T00:25:06;3.30;;;3.10;;
20541;SDS011;10429;50.956;9.786;2022-10-16T00:27:33;5.20;;;3.30;;
20541;SDS011;10429;50.956;9.786;2022-10-16T00:29:59;3.30;;;3.10;;
20541;SDS011;10429;50.956;9.786;2022-10-16T00:32:25;4.23;;;3.03;;
20541;SDS011;10429;50.956;9.786;2022-10-16T00:34:51;4.13;;;3.27;;
20541;SDS011;10429;50.956;9.786;2022-10-16T00:37:19;4.17;;;3.00;;
20541;SDS011;10429;50.956;9.786;2022-10-16T00:39:45;2.80;;;2.30;;
20541;SDS011;10429;50.956;9.786;2022-10-16T00:42:15;2.70;;;2.50;;
20541;SDS011;10429;50.956;9.786;2022-10-16T00:44:53;2.80;;;2.60;;
20541;SDS011;10429;50.956;9.786;2022-10-16T00:47:42;3.33;;;2.83;;
20541;SDS011;10429;50.956;9.786;2022-10-16T00:52:36;3.53;;;2.90;;
20541;SDS011;10429;50.956;9.786;2022-10-16T00:55:05;3.27;;;2.93;;
20541;SDS011;10429;50.956;9.786;2022-10-16T00:57:31;3.20;;;3.00;;
20541;SDS011;10429;50.956;9.786;2022-10-16T00:59:57;4.80;;;3.57;;
20541;SDS011;10429;50.956;9.786;2022-10-16T01:02:24;3.63;;;3.33;;
20541;SDS011;10429;50.956;9.786;2022-10-16T01:04:50;3.73;;;3.43;;
20541;SDS011;10429;50.956;9.786;2022-10-16T01:28:05;5.10;;;4.03;;
20541;SDS011;10429;50.956;9.786;2022-10-16T01:30:33;5.63;;;4.30;;
20541;SDS011;10429;50.956;9.786;2022-10-16T01:33:04;4.07;;;3.73;;
20541;SDS011;10429;50.956;9.786;2022-10-16T01:35:36;5.07;;;3.60;;
20541;SDS011;10429;50.956;9.786;2022-10-16T01:40:36;6.40;;;4.37;;
20541;SDS011;10429;50.956;9.786;2022-10-16T01:43:04;6.13;;;4.40;;
20541;SDS011;10429;50.956;9.786;2022-10-16T01:45:32;5.20;;;4.70;;
20541;SDS011;10429;50.956;9.786;2022-10-16T01:47:59;5.07;;;4.60;;
20541;SDS011;10429;50.956;9.786;2022-10-16T01:50:29;4.73;;;4.17;;
20541;SDS011;10429;50.956;9.786;2022-10-16T01:52:56;5.47;;;4.23;;
20541;SDS011;10429;50.956;9.786;2022-10-16T01:55:26;4.57;;;3.87;;
20541;SDS011;10429;50.956;9.786;2022-10-16T01:57:54;4.27;;;3.97;;
20541;SDS011;10429;50.956;9.786;2022-10-16T02:00:20;4.43;;;4.10;;
20541;SDS011;10429;50.956;9.786;2022-10-16T02:02:49;4.17;;;3.80;;
20541;SDS011;10429;50.956;9.786;2022-10-16T02:05:17;4.23;;;3.90;;
20541;SDS011;10429;50.956;9.786;2022-10-16T02:07:44;4.33;;;3.93;;
20541;SDS011;10429;50.956;9.786;2022-10-16T02:10:11;4.20;;;3.90;;
20541;SDS011;10429;50.956;9.786;2022-10-16T02:12:40;3.90;;;3.60;;
20541;SDS011;10429;50.956;9.786;2022-10-16T02:15:09;4.03;;;3.77;;
20541;SDS011;10429;50.956;9.786;2022-10-16T02:17:35;5.97;;;3.90;;
20541;SDS011;10429;50.956;9.786;2022-10-16T02:20:01;3.83;;;3.53;;
20541;SDS011;10429;50.956;9.786;2022-10-16T02:22:32;3.63;;;3.33;;
20541;SDS011;10429;50.956;9.786;2022-10-16T02:25:06;3.80;;;3.20;;
20541;SDS011;10429;50.956;9.786;2022-10-16T02:30:12;3.30;;;3.00;;
20541;SDS011;10429;50.956;9.786;2022-10-16T02:32:41;3.63;;;3.37;;
20541;SDS011;10429;50.956;9.786;2022-10-16T02:35:08;3.57;;;3.00;;
20541;SDS011;10429;50.956;9.786;2022-10-16T02:37:34;7.10;;;3.47;;
20541;SDS011;10429;50.956;9.786;2022-10-16T02:40:01;5.17;;;3.30;;
20541;SDS011;10429;50.956;9.786;2022-10-16T02:42:34;3.70;;;3.30;;
20541;SDS011;10429;50.956;9.786;2022-10-16T02:45:00;4.43;;;3.63;;
20541;SDS011;10429;50.956;9.786;2022-10-16T02:47:26;3.70;;;3.40;;
20541;SDS011;10429;50.956;9.786;2022-10-16T02:49:52;4.20;;;3.80;;
20541;SDS011;10429;50.956;9.786;2022-10-16T02:52:18;3.70;;;3.50;;
20541;SDS011;10429;50.956;9.786;2022-10-16T02:54:44;3.87;;;3.60;;
20541;SDS011;10429;50.956;9.786;2022-10-16T02:57:10;5.93;;;3.50;;
20541;SDS011;10429;50.956;9.786;2022-10-16T02:59:36;4.20;;;3.90;;
20541;SDS011;10429;50.956;9.786;2022-10-16T03:02:02;6.07;;;4.10;;
20541;SDS011;10429;50.956;9.786;2022-10-16T03:04:28;7.27;;;4.30;;
20541;SDS011;10429;50.956;9.786;2022-10-16T03:06:54;4.77;;;4.43;;
20541;SDS011;10429;50.956;9.786;2022-10-16T03:09:21;4.87;;;4.13;;
20541;SDS011;10429;50.956;9.786;2022-10-16T03:11:47;4.53;;;4.13;;
20541;SDS011;10429;50.956;9.786;2022-10-16T03:14:13;4.13;;;3.70;;
20541;SDS011;10429;50.956;9.786;2022-10-16T03:16:39;4.90;;;4.60;;
20541;SDS011;10429;50.956;9.786;2022-10-16T03:19:05;4.40;;;4.20;;
20541;SDS011;10429;50.956;9.786;2022-10-16T03:21:31;4.70;;;4.40;;
20541;SDS011;10429;50.956;9.786;2022-10-16T03:23:57;5.20;;;4.70;;
20541;SDS011;10429;50.956;9.786;2022-10-16T03:26:22;5.60;;;4.20;;
20541;SDS011;10429;50.956;9.786;2022-10-16T03:28:49;4.93;;;4.53;;
20541;SDS011;10429;50.956;9.786;2022-10-16T03:31:15;5.13;;;4.40;;
20541;SDS011;10429;50.956;9.786;2022-10-16T03:33:41;5.10;;;4.60;;
20541;SDS011;10429;50.956;9.786;2022-10-16T03:36:07;5.83;;;5.20;;
20541;SDS011;10429;50.956;9.786;2022-10-16T03:38:33;5.20;;;4.80;;
20541;SDS011;10429;50.956;9.786;2022-10-16T03:40:59;4.93;;;4.63;;
20541;SDS011;10429;50.956;9.786;2022-10-16T03:43:25;5.30;;;4.80;;
20541;SDS011;10429;50.956;9.786;2022-10-16T03:45:51;8.30;;;5.50;;
20541;SDS011;10429;50.956;9.786;2022-10-16T03:48:20;4.77;;;4.47;;
20541;SDS011;10429;50.956;9.786;2022-10-16T03:50:46;5.93;;;5.33;;
20541;SDS011;10429;50.956;9.786;2022-10-16T03:53:13;5.67;;;5.20;;
20541;SDS011;10429;50.956;9.786;2022-10-16T03:55:41;6.20;;;5.47;;
20541;SDS011;10429;50.956;9.786;2022-10-16T03:58:07;6.27;;;5.77;;
20541;SDS011;10429;50.956;9.786;2022-10-16T04:00:33;5.33;;;4.77;;
20541;SDS011;10429;50.956;9.786;2022-10-16T04:03:00;5.67;;;5.10;;
20541;SDS011;10429;50.956;9.786;2022-10-16T04:05:26;6.27;;;5.10;;
20541;SDS011;10429;50.956;9.786;2022-10-16T04:07:52;5.33;;;4.93;;
20541;SDS011;10429;50.956;9.786;2022-10-16T04:10:18;5.60;;;5.20;;
20541;SDS011;10429;50.956;9.786;2022-10-16T04:12:44;5.10;;;4.60;;
20541;SDS011;10429;50.956;9.786;2022-10-16T04:15:10;5.20;;;4.70;;
20541;SDS011;10429;50.956;9.786;2022-10-16T04:17:36;6.00;;;4.50;;
20541;SDS011;10429;50.956;9.786;2022-10-16T04:20:02;8.53;;;5.30;;
20541;SDS011;10429;50.956;9.786;2022-10-16T04:22:28;8.47;;;7.67;;
20541;SDS011;10429;50.956;9.786;2022-10-16T04:24:54;7.87;;;5.70;;
20541;SDS011;10429;50.956;9.786;2022-10-16T04:27:22;6.53;;;5.30;;
20541;SDS011;10429;50.956;9.786;2022-10-16T04:29:49;5.87;;;5.37;;
20541;SDS011;10429;50.956;9.786;2022-10-16T04:32:15;5.50;;;5.10;;
20541;SDS011;10429;50.956;9.786;2022-10-16T04:34:41;6.43;;;5.83;;
20541;SDS011;10429;50.956;9.786;2022-10-16T04:37:07;7.60;;;6.90;;
20541;SDS011;10429;50.956;9.786;2022-10-16T04:39:33;6.20;;;5.70;;
20541;SDS011;10429;50.956;9.786;2022-10-16T04:41:59;7.43;;;5.60;;
20541;SDS011;10429;50.956;9.786;2022-10-16T04:44:25;8.73;;;5.93;;
20541;SDS011;10429;50.956;9.786;2022-10-16T04:46:51;6.33;;;5.70;;
20541;SDS011;10429;50.956;9.786;2022-10-16T04:49:17;6.83;;;6.03;;
20541;SDS011;10429;50.956;9.786;2022-10-16T04:51:43;6.97;;;6.37;;
20541;SDS011;10429;50.956;9.786;2022-10-16T04:54:09;7.40;;;6.40;;
20541;SDS011;10429;50.956;9.786;2022-10-16T04:56:35;8.07;;;6.33;;
20541;SDS011;10429;50.956;9.786;2022-10-16T04:59:08;7.67;;;6.37;;
20541;SDS011;10429;50.956;9.786;2022-10-16T05:01:34;7.47;;;6.70;;
20541;SDS011;10429;50.956;9.786;2022-10-16T05:04:00;7.63;;;6.60;;
20541;SDS011;10429;50.956;9.786;2022-10-16T05:06:26;7.47;;;6.87;;
20541;SDS011;10429;50.956;9.786;2022-10-16T05:08:55;7.03;;;6.43;;
20541;SDS011;10429;50.956;9.786;2022-10-16T05:11:21;7.50;;;6.90;;
20541;SDS011;10429;50.956;9.786;2022-10-16T05:13:47;7.53;;;6.77;;
20541;SDS011;10429;50.956;9.786;2022-10-16T05:16:13;8.93;;;7.50;;
20541;SDS011;10429;50.956;9.786;2022-10-16T05:18:39;9.70;;;8.00;;
20541;SDS011;10429;50.956;9.786;2022-10-16T05:21:05;9.17;;;8.03;;
20541;SDS011;10429;50.956;9.786;2022-10-16T05:23:31;7.57;;;6.80;;
20541;SDS011;10429;50.956;9.786;2022-10-16T05:26:00;8.93;;;7.23;;
20541;SDS011;10429;50.956;9.786;2022-10-16T05:28:29;8.73;;;8.03;;
20541;SDS011;10429;50.956;9.786;2022-10-16T05:30:57;8.30;;;7.40;;
20541;SDS011;10429;50.956;9.786;2022-10-16T05:33:26;9.47;;;8.30;;
20541;SDS011;10429;50.956;9.786;2022-10-16T05:35:52;9.10;;;8.20;;
20541;SDS011;10429;50.956;9.786;2022-10-16T05:38:18;8.33;;;7.53;;
20541;SDS011;10429;50.956;9.786;2022-10-16T05:40:50;7.93;;;7.40;;
20541;SDS011;10429;50.956;9.786;2022-10-16T05:43:16;8.90;;;8.00;;
20541;SDS011;10429;50.956;9.786;2022-10-16T05:45:53;8.27;;;7.40;;
20541;SDS011;10429;50.956;9.786;2022-10-16T05:48:19;8.00;;;7.20;;
20541;SDS011;10429;50.956;9.786;2022-10-16T05:50:45;7.20;;;6.70;;
20541;SDS011;10429;50.956;9.786;2022-10-16T05:53:13;7.13;;;6.43;;
20541;SDS011;10429;50.956;9.786;2022-10-16T05:55:39;7.47;;;6.77;;
20541;SDS011;10429;50.956;9.786;2022-10-16T05:58:05;6.97;;;6.37;;
20541;SDS011;10429;50.956;9.786;2022-10-16T06:00:31;7.10;;;6.53;;
20541;SDS011;10429;50.956;9.786;2022-10-16T06:02:57;7.17;;;6.47;;
20541;SDS011;10429;50.956;9.786;2022-10-16T06:05:23;7.43;;;6.53;;
20541;SDS011;10429;50.956;9.786;2022-10-16T06:07:49;6.30;;;5.80;;
20541;SDS011;10429;50.956;9.786;2022-10-16T06:10:15;7.20;;;6.50;;
20541;SDS011;10429;50.956;9.786;2022-10-16T06:12:41;6.00;;;5.50;;
20541;SDS011;10429;50.956;9.786;2022-10-16T06:15:08;5.57;;;5.17;;
20541;SDS011;10429;50.956;9.786;2022-10-16T06:17:34;4.60;;;4.30;;
20541;SDS011;10429;50.956;9.786;2022-10-16T06:20:00;5.10;;;4.70;;
20541;SDS011;10429;50.956;9.786;2022-10-16T06:22:26;6.37;;;4.43;;
20541;SDS011;10429;50.956;9.786;2022-10-16T06:24:52;5.60;;;4.20;;
20541;SDS011;10429;50.956;9.786;2022-10-16T06:27:18;4.53;;;4.13;;
20541;SDS011;10429;50.956;9.786;2022-10-16T06:29:44;5.70;;;4.60;;
20541;SDS011;10429;50.956;9.786;2022-10-16T06:32:10;5.80;;;4.10;;
20541;SDS011;10429;50.956;9.786;2022-10-16T06:34:36;5.17;;;3.97;;
20541;SDS011;10429;50.956;9.786;2022-10-16T06:37:05;4.20;;;3.80;;
20541;SDS011;10429;50.956;9.786;2022-10-16T06:39:31;4.50;;;4.10;;
20541;SDS011;10429;50.956;9.786;2022-10-16T06:41:57;6.07;;;4.00;;
20541;SDS011;10429;50.956;9.786;2022-10-16T06:44:23;7.17;;;6.50;;
20541;SDS011;10429;50.956;9.786;2022-10-16T06:46:52;7.67;;;6.20;;
20541;SDS011;10429;50.956;9.786;2022-10-16T06:49:18;8.47;;;7.37;;
20541;SDS011;10429;50.956;9.786;2022-10-16T06:51:47;5.33;;;4.47;;
20541;SDS011;10429;50.956;9.786;2022-10-16T06:54:14;4.43;;;4.07;;
20541;SDS011;10429;50.956;9.786;2022-10-16T06:56:41;4.53;;;2.87;;
20541;SDS011;10429;50.956;9.786;2022-10-16T06:59:07;9.90;;;6.07;;
20541;SDS011;10429;50.956;9.786;2022-10-16T07:01:33;6.90;;;4.33;;
20541;SDS011;10429;50.956;9.786;2022-10-16T07:03:59;5.73;;;2.83;;
20541;SDS011;10429;50.956;9.786;2022-10-16T07:06:26;6.63;;;3.70;;
20541;SDS011;10429;50.956;9.786;2022-10-16T07:08:52;4.53;;;3.10;;
20541;SDS011;10429;50.956;9.786;2022-10-16T07:11:23;5.17;;;4.17;;
20541;SDS011;10429;50.956;9.786;2022-10-16T07:13:50;4.10;;;3.07;;
20541;SDS011;10429;50.956;9.786;2022-10-16T07:16:17;7.47;;;4.80;;
20541;SDS011;10429;50.956;9.786;2022-10-16T07:18:44;4.70;;;2.80;;
20541;SDS011;10429;50.956;9.786;2022-10-16T07:23:37;3.87;;;2.63;;
20541;SDS011;10429;50.956;9.786;2022-10-16T07:26:04;4.67;;;2.80;;
20541;SDS011;10429;50.956;9.786;2022-10-16T07:28:30;6.00;;;2.47;;
20541;SDS011;10429;50.956;9.786;2022-10-16T07:31:01;5.10;;;3.00;;
20541;SDS011;10429;50.956;9.786;2022-10-16T07:33:27;2.87;;;2.27;;
20541;SDS011;10429;50.956;9.786;2022-10-16T07:35:54;2.20;;;1.50;;
20541;SDS011;10429;50.956;9.786;2022-10-16T07:38:20;1.60;;;1.50;;
20541;SDS011;10429;50.956;9.786;2022-10-16T07:40:46;4.63;;;2.20;;
20541;SDS011;10429;50.956;9.786;2022-10-16T07:43:13;2.83;;;2.27;;
20541;SDS011;10429;50.956;9.786;2022-10-16T07:45:48;2.70;;;2.20;;
20541;SDS011;10429;50.956;9.786;2022-10-16T07:48:15;5.17;;;2.53;;
20541;SDS011;10429;50.956;9.786;2022-10-16T07:50:41;1.97;;;1.77;;
20541;SDS011;10429;50.956;9.786;2022-10-16T07:53:10;2.80;;;2.00;;
20541;SDS011;10429;50.956;9.786;2022-10-16T07:55:36;1.80;;;1.20;;
20541;SDS011;10429;50.956;9.786;2022-10-16T07:58:03;3.80;;;3.00;;
20541;SDS011;10429;50.956;9.786;2022-10-16T08:00:29;2.53;;;1.83;;
20541;SDS011;10429;50.956;9.786;2022-10-16T08:02:56;4.00;;;1.70;;
20541;SDS011;10429;50.956;9.786;2022-10-16T08:05:25;3.57;;;1.70;;
20541;SDS011;10429;50.956;9.786;2022-10-16T08:07:51;2.17;;;1.80;;
20541;SDS011;10429;50.956;9.786;2022-10-16T08:10:18;5.90;;;4.43;;
20541;SDS011;10429;50.956;9.786;2022-10-16T08:12:44;3.77;;;2.60;;
20541;SDS011;10429;50.956;9.786;2022-10-16T08:15:10;2.60;;;2.23;;
20541;SDS011;10429;50.956;9.786;2022-10-16T08:17:37;3.30;;;3.10;;
20541;SDS011;10429;50.956;9.786;2022-10-16T08:20:03;2.90;;;2.70;;
20541;SDS011;10429;50.956;9.786;2022-10-16T08:22:29;6.17;;;4.30;;
20541;SDS011;10429;50.956;9.786;2022-10-16T08:24:55;2.50;;;2.30;;
20541;SDS011;10429;50.956;9.786;2022-10-16T08:27:21;5.47;;;3.13;;
20541;SDS011;10429;50.956;9.786;2022-10-16T08:29:48;4.53;;;3.53;;
20541;SDS011;10429;50.956;9.786;2022-10-16T08:32:14;7.37;;;5.37;;
20541;SDS011;10429;50.956;9.786;2022-10-16T08:34:40;6.37;;;4.90;;
20541;SDS011;10429;50.956;9.786;2022-10-16T08:37:06;3.00;;;2.53;;
20541;SDS011;10429;50.956;9.786;2022-10-16T08:39:33;2.17;;;1.90;;
20541;SDS011;10429;50.956;9.786;2022-10-16T08:46:57;1.80;;;1.70;;
20541;SDS011;10429;50.956;9.786;2022-10-16T08:49:29;2.87;;;1.67;;
20541;SDS011;10429;50.956;9.786;2022-10-16T08:51:55;3.37;;;1.63;;
20541;SDS011;10429;50.956;9.786;2022-10-16T08:54:32;2.30;;;1.47;;
20541;SDS011;10429;50.956;9.786;2022-10-16T08:57:11;1.73;;;1.63;;
20541;SDS011;10429;50.956;9.786;2022-10-16T08:59:39;2.83;;;1.50;;
20541;SDS011;10429;50.956;9.786;2022-10-16T09:04:55;1.90;;;1.80;;
20541;SDS011;10429;50.956;9.786;2022-10-16T09:12:37;2.70;;;2.50;;
20541;SDS011;10429;50.956;9.786;2022-10-16T09:22:44;1.70;;;1.60;;
20541;SDS011;10429;50.956;9.786;2022-10-16T09:25:13;2.73;;;1.67;;
20541;SDS011;10429;50.956;9.786;2022-10-16T09:27:39;2.40;;;1.80;;
20541;SDS011;10429;50.956;9.786;2022-10-16T09:30:15;2.10;;;1.70;;
20541;SDS011;10429;50.956;9.786;2022-10-16T09:32:42;3.53;;;1.97;;
20541;SDS011;10429;50.956;9.786;2022-10-16T09:35:11;1.77;;;1.67;;
20541;SDS011;10429;50.956;9.786;2022-10-16T09:37:38;1.70;;;1.60;;
20541;SDS011;10429;50.956;9.786;2022-10-16T09:40:05;1.87;;;1.77;;
20541;SDS011;10429;50.956;9.786;2022-10-16T09:42:32;2.87;;;1.33;;
20541;SDS011;10429;50.956;9.786;2022-10-16T09:45:00;1.53;;;1.43;;
20541;SDS011;10429;50.956;9.786;2022-10-16T09:47:27;2.50;;;1.60;;
20541;SDS011;10429;50.956;9.786;2022-10-16T09:50:04;1.27;;;1.27;;
20541;SDS011;10429;50.956;9.786;2022-10-16T09:52:31;1.70;;;1.60;;
20541;SDS011;10429;50.956;9.786;2022-10-16T09:55:02;2.37;;;1.50;;
20541;SDS011;10429;50.956;9.786;2022-10-16T09:57:28;5.23;;;3.40;;
20541;SDS011;10429;50.956;9.786;2022-10-16T09:59:56;2.63;;;2.30;;
20541;SDS011;10429;50.956;9.786;2022-10-16T10:02:35;1.83;;;1.40;;
20541;SDS011;10429;50.956;9.786;2022-10-16T10:05:04;1.20;;;1.10;;
20541;SDS011;10429;50.956;9.786;2022-10-16T10:07:35;1.20;;;1.20;;
20541;SDS011;10429;50.956;9.786;2022-10-16T10:10:04;14.70;;;5.30;;
20541;SDS011;10429;50.956;9.786;2022-10-16T10:12:33;2.60;;;1.50;;
20541;SDS011;10429;50.956;9.786;2022-10-16T10:15:21;2.70;;;2.10;;
20541;SDS011;10429;50.956;9.786;2022-10-16T10:17:52;5.70;;;2.00;;
20541;SDS011;10429;50.956;9.786;2022-10-16T10:22:47;8.60;;;4.03;;
20541;SDS011;10429;50.956;9.786;2022-10-16T10:30:20;1.73;;;1.23;;
20541;SDS011;10429;50.956;9.786;2022-10-16T10:45:46;1.20;;;1.10;;
20541;SDS011;10429;50.956;9.786;2022-10-16T11:02:28;2.23;;;0.93;;
20541;SDS011;10429;50.956;9.786;2022-10-16T11:07:31;4.40;;;0.83;;
20541;SDS011;10429;50.956;9.786;2022-10-16T11:10:09;3.00;;;1.00;;
20541;SDS011;10429;50.956;9.786;2022-10-16T11:12:44;3.77;;;1.50;;
20541;SDS011;10429;50.956;9.786;2022-10-16T11:15:15;7.67;;;1.53;;
20541;SDS011;10429;50.956;9.786;2022-10-16T11:17:45;5.07;;;1.57;;
20541;SDS011;10429;50.956;9.786;2022-10-16T11:20:13;2.90;;;1.30;;
20541;SDS011;10429;50.956;9.786;2022-10-16T11:25:46;4.63;;;2.17;;
20541;SDS011;10429;50.956;9.786;2022-10-16T11:28:14;5.03;;;3.10;;
20541;SDS011;10429;50.956;9.786;2022-10-16T11:30:55;3.53;;;1.40;;
20541;SDS011;10429;50.956;9.786;2022-10-16T11:33:27;8.03;;;1.30;;
20541;SDS011;10429;50.956;9.786;2022-10-16T11:41:07;7.27;;;2.80;;
20541;SDS011;10429;50.956;9.786;2022-10-16T11:43:37;2.03;;;1.50;;
20541;SDS011;10429;50.956;9.786;2022-10-16T11:46:05;2.20;;;1.30;;
20541;SDS011;10429;50.956;9.786;2022-10-16T11:48:39;3.93;;;1.20;;
20541;SDS011;10429;50.956;9.786;2022-10-16T11:53:46;1.50;;;1.13;;
20541;SDS011;10429;50.956;9.786;2022-10-16T11:56:19;1.23;;;0.70;;
20541;SDS011;10429;50.956;9.786;2022-10-16T12:08:51;0.77;;;0.50;;
20541;SDS011;10429;50.956;9.786;2022-10-16T12:16:38;1.80;;;0.90;;
20541;SDS011;10429;50.956;9.786;2022-10-16T12:19:12;2.57;;;0.80;;
20541;SDS011;10429;50.956;9.786;2022-10-16T12:21:38;1.73;;;0.73;;
20541;SDS011;10429;50.956;9.786;2022-10-16T12:24:05;0.87;;;0.47;;
20541;SDS011;10429;50.956;9.786;2022-10-16T12:26:32;2.40;;;1.17;;
20541;SDS011;10429;50.956;9.786;2022-10-16T12:31:38;3.10;;;0.77;;
20541;SDS011;10429;50.956;9.786;2022-10-16T12:34:05;1.53;;;0.53;;
20541;SDS011;10429;50.956;9.786;2022-10-16T12:36:34;2.93;;;1.00;;
20541;SDS011;10429;50.956;9.786;2022-10-16T12:39:00;6.63;;;1.63;;
20541;SDS011;10429;50.956;9.786;2022-10-16T12:41:35;2.53;;;0.90;;
20541;SDS011;10429;50.956;9.786;2022-10-16T12:44:04;0.80;;;0.80;;
20541;SDS011;10429;50.956;9.786;2022-10-16T12:49:05;1.07;;;0.73;;
20541;SDS011;10429;50.956;9.786;2022-10-16T12:54:26;6.77;;;1.53;;
20541;SDS011;10429;50.956;9.786;2022-10-16T13:02:09;2.50;;;0.70;;
20541;SDS011;10429;50.956;9.786;2022-10-16T13:15:32;0.70;;;0.70;;
20541;SDS011;10429;50.956;9.786;2022-10-16T13:20:44;1.10;;;0.67;;
20541;SDS011;10429;50.956;9.786;2022-10-16T13:23:14;0.87;;;0.63;;
20541;SDS011;10429;50.956;9.786;2022-10-16T13:28:21;1.90;;;0.80;;
20541;SDS011;10429;50.956;9.786;2022-10-16T13:30:52;0.70;;;0.70;;
20541;SDS011;10429;50.956;9.786;2022-10-16T13:35:55;0.90;;;0.90;;
20541;SDS011;10429;50.956;9.786;2022-10-16T13:38:24;0.80;;;0.80;;
20541;SDS011;10429;50.956;9.786;2022-10-16T13:40:53;1.37;;;0.70;;
20541;SDS011;10429;50.956;9.786;2022-10-16T13:43:22;1.03;;;0.77;;
20541;SDS011;10429;50.956;9.786;2022-10-16T13:45:56;1.13;;;0.87;;
20541;SDS011;10429;50.956;9.786;2022-10-16T13:48:22;1.00;;;0.97;;
20541;SDS011;10429;50.956;9.786;2022-10-16T13:51:01;0.87;;;0.80;;
20541;SDS011;10429;50.956;9.786;2022-10-16T13:53:29;1.07;;;0.70;;
20541;SDS011;10429;50.956;9.786;2022-10-16T13:56:00;2.10;;;1.00;;
20541;SDS011;10429;50.956;9.786;2022-10-16T13:58:27;1.87;;;1.20;;
20541;SDS011;10429;50.956;9.786;2022-10-16T14:00:57;3.20;;;1.30;;
20541;SDS011;10429;50.956;9.786;2022-10-16T14:03:23;1.40;;;1.03;;
20541;SDS011;10429;50.956;9.786;2022-10-16T14:05:51;1.53;;;1.30;;
20541;SDS011;10429;50.956;9.786;2022-10-16T14:08:17;3.30;;;1.40;;
20541;SDS011;10429;50.956;9.786;2022-10-16T14:10:46;1.63;;;1.10;;
20541;SDS011;10429;50.956;9.786;2022-10-16T14:13:16;2.50;;;1.40;;
20541;SDS011;10429;50.956;9.786;2022-10-16T14:15:45;3.27;;;1.47;;
20541;SDS011;10429;50.956;9.786;2022-10-16T14:18:20;1.30;;;1.20;;
20541;SDS011;10429;50.956;9.786;2022-10-16T14:20:46;1.70;;;1.00;;
20541;SDS011;10429;50.956;9.786;2022-10-16T14:23:23;1.67;;;1.40;;
20541;SDS011;10429;50.956;9.786;2022-10-16T14:25:53;1.27;;;1.27;;
20541;SDS011;10429;50.956;9.786;2022-10-16T14:28:22;1.77;;;1.60;;
20541;SDS011;10429;50.956;9.786;2022-10-16T14:33:22;2.20;;;1.60;;
20541;SDS011;10429;50.956;9.786;2022-10-16T14:35:58;2.53;;;1.60;;
20541;SDS011;10429;50.956;9.786;2022-10-16T14:38:25;2.57;;;1.50;;
20541;SDS011;10429;50.956;9.786;2022-10-16T14:40:51;2.10;;;1.70;;
20541;SDS011;10429;50.956;9.786;2022-10-16T14:43:29;2.10;;;1.90;;
20541;SDS011;10429;50.956;9.786;2022-10-16T14:45:56;4.80;;;2.13;;
20541;SDS011;10429;50.956;9.786;2022-10-16T14:48:22;1.67;;;1.50;;
20541;SDS011;10429;50.956;9.786;2022-10-16T14:50:49;3.63;;;1.67;;
20541;SDS011;10429;50.956;9.786;2022-10-16T14:53:15;1.50;;;1.50;;
20541;SDS011;10429;50.956;9.786;2022-10-16T14:55:42;1.63;;;1.53;;
20541;SDS011;10429;50.956;9.786;2022-10-16T14:58:15;2.23;;;1.80;;
20541;SDS011;10429;50.956;9.786;2022-10-16T15:00:42;1.80;;;1.70;;
20541;SDS011;10429;50.956;9.786;2022-10-16T15:03:08;1.50;;;1.40;;
20541;SDS011;10429;50.956;9.786;2022-10-16T15:05:34;2.87;;;2.57;;
20541;SDS011;10429;50.956;9.786;2022-10-16T15:08:00;3.73;;;3.40;;
20541;SDS011;10429;50.956;9.786;2022-10-16T15:10:27;3.03;;;2.93;;
20541;SDS011;10429;50.956;9.786;2022-10-16T15:12:56;1.53;;;1.50;;
20541;SDS011;10429;50.956;9.786;2022-10-16T15:17:58;3.33;;;1.80;;
20541;SDS011;10429;50.956;9.786;2022-10-16T15:20:28;2.57;;;1.90;;
20541;SDS011;10429;50.956;9.786;2022-10-16T15:22:55;4.60;;;1.80;;
20541;SDS011;10429;50.956;9.786;2022-10-16T15:25:27;4.10;;;1.90;;
20541;SDS011;10429;50.956;9.786;2022-10-16T15:27:53;3.30;;;2.30;;
20541;SDS011;10429;50.956;9.786;2022-10-16T15:30:19;1.90;;;1.80;;
20541;SDS011;10429;50.956;9.786;2022-10-16T15:32:45;2.40;;;2.20;;
20541;SDS011;10429;50.956;9.786;2022-10-16T15:35:12;2.57;;;2.10;;
20541;SDS011;10429;50.956;9.786;2022-10-16T15:37:38;3.93;;;2.40;;
20541;SDS011;10429;50.956;9.786;2022-10-16T15:40:04;2.27;;;1.90;;
20541;SDS011;10429;50.956;9.786;2022-10-16T15:42:30;2.20;;;1.90;;
20541;SDS011;10429;50.956;9.786;2022-10-16T15:44:56;2.47;;;2.30;;
20541;SDS011;10429;50.956;9.786;2022-10-16T15:47:22;3.27;;;2.00;;
20541;SDS011;10429;50.956;9.786;2022-10-16T15:49:48;4.67;;;2.20;;
20541;SDS011;10429;50.956;9.786;2022-10-16T15:52:17;2.63;;;2.10;;
20541;SDS011;10429;50.956;9.786;2022-10-16T15:54:44;2.13;;;2.03;;
20541;SDS011;10429;50.956;9.786;2022-10-16T15:57:10;5.03;;;2.10;;
20541;SDS011;10429;50.956;9.786;2022-10-16T15:59:36;3.27;;;2.00;;
20541;SDS011;10429;50.956;9.786;2022-10-16T16:02:02;2.23;;;2.10;;
20541;SDS011;10429;50.956;9.786;2022-10-16T16:04:31;6.07;;;2.80;;
20541;SDS011;10429;50.956;9.786;2022-10-16T16:06:57;2.73;;;2.30;;
20541;SDS011;10429;50.956;9.786;2022-10-16T16:09:23;2.60;;;2.40;;
20541;SDS011;10429;50.956;9.786;2022-10-16T16:11:49;5.20;;;2.30;;
20541;SDS011;10429;50.956;9.786;2022-10-16T16:14:17;3.60;;;2.40;;
20541;SDS011;10429;50.956;9.786;2022-10-16T16:16:43;3.00;;;2.70;;
20541;SDS011;10429;50.956;9.786;2022-10-16T16:19:09;4.00;;;2.53;;
20541;SDS011;10429;50.956;9.786;2022-10-16T16:21:35;2.67;;;2.50;;
20541;SDS011;10429;50.956;9.786;2022-10-16T16:24:01;3.73;;;3.40;;
20541;SDS011;10429;50.956;9.786;2022-10-16T16:26:33;5.57;;;4.70;;
20541;SDS011;10429;50.956;9.786;2022-10-16T16:29:01;4.87;;;4.20;;
20541;SDS011;10429;50.956;9.786;2022-10-16T16:31:29;4.60;;;4.20;;
20541;SDS011;10429;50.956;9.786;2022-10-16T16:33:55;4.33;;;4.03;;
20541;SDS011;10429;50.956;9.786;2022-10-16T16:36:22;4.67;;;4.03;;
20541;SDS011;10429;50.956;9.786;2022-10-16T16:38:49;5.90;;;4.43;;
20541;SDS011;10429;50.956;9.786;2022-10-16T16:41:19;5.57;;;4.40;;
20541;SDS011;10429;50.956;9.786;2022-10-16T16:43:45;4.10;;;3.77;;
20541;SDS011;10429;50.956;9.786;2022-10-16T16:46:21;4.20;;;3.80;;
20541;SDS011;10429;50.956;9.786;2022-10-16T16:48:47;4.37;;;3.80;;
20541;SDS011;10429;50.956;9.786;2022-10-16T16:51:16;4.90;;;4.50;;
20541;SDS011;10429;50.956;9.786;2022-10-16T16:53:46;6.20;;;4.57;;
20541;SDS011;10429;50.956;9.786;2022-10-16T16:56:12;8.03;;;4.40;;
20541;SDS011;10429;50.956;9.786;2022-10-16T16:58:43;5.33;;;4.83;;
20541;SDS011;10429;50.956;9.786;2022-10-16T17:01:10;5.30;;;4.57;;
20541;SDS011;10429;50.956;9.786;2022-10-16T17:03:36;5.23;;;3.53;;
20541;SDS011;10429;50.956;9.786;2022-10-16T17:06:03;4.23;;;3.83;;
20541;SDS011;10429;50.956;9.786;2022-10-16T17:08:30;4.60;;;3.60;;
20541;SDS011;10429;50.956;9.786;2022-10-16T17:10:56;4.63;;;4.20;;
20541;SDS011;10429;50.956;9.786;2022-10-16T17:13:23;6.70;;;4.17;;
20541;SDS011;10429;50.956;9.786;2022-10-16T17:15:50;4.27;;;3.97;;
20541;SDS011;10429;50.956;9.786;2022-10-16T17:18:17;5.80;;;4.93;;
20541;SDS011;10429;50.956;9.786;2022-10-16T17:20:46;7.30;;;4.97;;
20541;SDS011;10429;50.956;9.786;2022-10-16T17:23:15;7.73;;;5.03;;